Terminal Aerodrome Forecast
Issued by NWS Albany, NY

Home | Current Version | Previous Version | Text Only | Print | Product List | Glossary On
Versions: 1 2 3 4 5 6 7 8 9 10 11 12 13 14 15 16 17
000
FTUS41 KALY 210500
TAFGFL
TAF
KGFL 210536Z 2106/2206 00000KT P6SM VCSH SCT060 OVC080
     FM210800 00000KT P6SM -SHRA SCT040 OVC060
     FM211300 VRB03KT 6SM -SHRA BR OVC040
     FM211700 04005KT 5SM -SHRA BR OVC035
     FM220000 02005KT 4SM -SHRA BR OVC025=

USA.gov is the U.S. government's official web portal to all federal, state and local government web resources and services.